Time;durP1;ratioP1;P1;durP2;ratioP2;P2;SDS_P1;SDS_P2;PMS_P1;PMS_P2;Temp;Humidity;BMP_temperature;BMP_pressure;BME280_temperature;BME280_humidity;BME280_pressure;Samples;Min_cycle;Max_cycle;Signal;HPM_P1;HPM_P2
2022/10/21 00:03:09;;;;;;;30.20;15.40;;;;;;;3.17;74.91;99122.21;423262;1293;107300;-40
2022/10/21 00:13:16;;;;;;;34.00;19.10;;;;;;;3.20;75.03;99117.73;423026;1293;109336;-41
2022/10/21 00:23:24;;;;;;;33.90;18.20;;;;;;;3.16;75.05;99115.10;422482;1282;96690;-41
2022/10/21 00:33:31;;;;;;;32.50;19.20;;;;;;;3.17;74.99;99104.19;423027;1292;109616;-41
2022/10/21 00:43:55;;;;;;;36.60;20.00;;;;;;;3.27;75.07;99111.83;422672;1293;107124;-41
2022/10/21 00:54:03;;;;;;;31.30;17.90;;;;;;;3.21;75.11;99113.76;423255;1285;97892;-41
2022/10/21 01:04:10;;;;;;;33.70;19.50;;;;;;;2.94;74.95;99107.38;424121;1265;109452;-36
2022/10/21 01:24:54;;;;;;;29.60;19.40;;;;;;;2.71;75.50;99092.27;422964;1285;107131;-39
2022/10/21 01:35:06;;;;;;;30.10;16.20;;;;;;;2.80;75.44;99090.31;422727;1292;96957;-41
2022/10/21 01:45:19;;;;;;;29.10;14.80;;;;;;;2.83;75.77;99067.46;422692;1293;109368;-41
2022/10/21 01:55:31;;;;;;;30.50;15.20;;;;;;;2.94;75.91;99048.18;422925;1293;97998;-40
2022/10/21 02:05:39;;;;;;;35.40;17.30;;;;;;;2.88;75.96;99033.52;422854;1295;98274;-41
2022/10/21 02:15:47;;;;;;;30.90;16.30;;;;;;;2.86;76.16;99024.11;422807;1294;110451;-41
2022/10/21 02:25:54;;;;;;;22.90;13.80;;;;;;;2.92;76.11;99020.38;422991;1287;107493;-44
2022/10/21 02:36:06;;;;;;;28.30;17.10;;;;;;;2.84;76.03;99012.67;422724;1292;97507;-42
2022/10/21 02:46:14;;;;;;;32.60;16.60;;;;;;;2.77;75.88;99018.74;422875;1286;109805;-40
2022/10/21 02:56:21;;;;;;;33.30;18.90;;;;;;;2.52;76.18;99011.11;423225;1295;108251;-41
2022/10/21 03:06:29;;;;;;;44.20;24.00;;;;;;;2.31;76.36;99006.39;422777;1293;97482;-40
2022/10/21 03:16:36;;;;;;;44.50;24.20;;;;;;;2.13;76.68;98992.05;422740;1296;395305;-41
2022/10/21 03:26:43;;;;;;;44.00;22.90;;;;;;;2.14;76.91;98975.58;422929;1293;108578;-41
2022/10/21 03:36:50;;;;;;;31.60;17.80;;;;;;;2.24;76.87;98973.66;422498;1293;97922;-39
2022/10/21 03:46:57;;;;;;;28.00;16.80;;;;;;;2.20;77.03;98977.39;422691;1293;109959;-41
2022/10/21 03:57:04;;;;;;;26.90;18.10;;;;;;;2.25;77.06;98971.21;423057;1285;108095;-41
2022/10/21 04:07:11;;;;;;;46.50;23.50;;;;;;;2.30;77.42;98976.40;423037;1295;97861;-40
2022/10/21 04:17:19;;;;;;;43.00;24.20;;;;;;;2.18;77.40;98967.32;423231;1293;109404;-41
2022/10/21 04:27:26;;;;;;;43.20;25.60;;;;;;;1.97;77.55;98949.44;422713;1288;107656;-40
2022/10/21 04:37:33;;;;;;;45.30;28.40;;;;;;;1.90;77.60;98936.96;422785;1285;108596;-40
2022/10/21 04:47:40;;;;;;;40.20;26.10;;;;;;;1.96;77.66;98930.08;422785;1286;96819;-39
2022/10/21 04:57:47;;;;;;;27.70;19.60;;;;;;;2.01;77.91;98922.77;422961;1286;106911;-39
2022/10/21 05:07:55;;;;;;;37.10;23.80;;;;;;;2.11;78.00;98923.14;422844;1286;97474;-39
2022/10/21 05:18:02;;;;;;;53.50;30.30;;;;;;;2.18;78.17;98911.86;422917;1295;110005;-40
2022/10/21 05:28:09;;;;;;;47.60;27.90;;;;;;;2.19;78.51;98904.45;423062;1288;107226;-40
2022/10/21 05:38:16;;;;;;;53.00;27.50;;;;;;;2.26;78.69;98890.09;422977;1293;108137;-40
2022/10/21 05:48:24;;;;;;;47.20;29.90;;;;;;;2.40;78.70;98901.66;422821;1286;98575;-40
2022/10/21 05:58:32;;;;;;;49.10;27.30;;;;;;;2.55;78.64;98895.88;422566;1293;108426;-42
2022/10/21 06:08:40;;;;;;;38.40;23.90;;;;;;;2.81;78.93;98903.30;422994;1286;97491;-39
2022/10/21 06:18:47;;;;;;;46.10;26.20;;;;;;;2.97;78.90;98900.77;422828;1295;109587;-40
2022/10/21 06:28:54;;;;;;;57.40;30.00;;;;;;;3.13;79.13;98895.36;422697;1296;109512;-40
2022/10/21 06:39:02;;;;;;;54.40;29.80;;;;;;;3.35;79.33;98897.90;422755;1293;97870;-39
2022/10/21 06:49:09;;;;;;;44.50;24.10;;;;;;;3.60;79.31;98893.67;422836;1293;111037;-39
2022/10/21 06:59:16;;;;;;;39.30;22.30;;;;;;;3.92;79.29;98873.42;422953;1285;108160;-39
2022/10/21 07:09:24;;;;;;;43.20;27.40;;;;;;;4.25;79.44;98859.32;422855;1293;97893;-40
2022/10/21 07:19:32;;;;;;;52.90;29.80;;;;;;;5.24;80.00;98831.06;423065;1291;110811;-40
2022/10/21 07:29:39;;;;;;;34.80;21.60;;;;;;;6.60;79.20;98816.52;423113;1287;109473;-40
2022/10/21 07:39:46;;;;;;;30.30;18.90;;;;;;;6.82;78.13;98807.29;422588;1285;97977;-40
2022/10/21 07:49:53;;;;;;;36.00;21.40;;;;;;;6.83;77.87;98796.85;422755;1295;110659;-42
2022/10/21 08:00:00;;;;;;;36.20;22.20;;;;;;;6.94;78.01;98784.70;422543;1291;107138;-40
2022/10/21 08:10:08;;;;;;;39.30;21.90;;;;;;;7.22;77.83;98764.33;422431;1293;97701;-42
2022/10/21 08:20:19;;;;;;;28.20;19.00;;;;;;;7.62;77.60;98742.51;423118;1289;107489;-41
2022/10/21 08:40:36;;;;;;;36.40;18.60;;;;;;;8.23;77.24;98727.88;423018;1295;111372;-40
2022/10/21 08:50:46;;;;;;;33.80;17.10;;;;;;;8.28;76.82;98723.63;422814;1293;109429;-40
2022/10/21 09:11:05;;;;;;;27.40;15.80;;;;;;;8.75;76.83;98691.61;422961;1285;110587;-40
2022/10/21 09:21:16;;;;;;;29.10;16.70;;;;;;;9.11;76.46;98680.48;422966;1292;107977;-40
2022/10/21 09:31:23;;;;;;;25.20;13.70;;;;;;;9.52;76.04;98681.77;422964;1285;96673;-39
2022/10/21 09:41:28;;;;;;;13.90;9.20;;;;;;;10.05;74.84;98668.70;422856;1286;108843;-41
2022/10/21 09:51:41;;;;;;;16.30;9.10;;;;;;;10.38;73.01;98659.34;423106;1285;107458;-40
2022/10/21 10:01:49;;;;;;;16.90;9.70;;;;;;;10.51;71.89;98651.92;422669;1296;97914;-41
2022/10/21 10:11:55;;;;;;;13.80;9.50;;;;;;;10.54;71.23;98652.25;422777;1291;110709;-39
2022/10/21 10:32:23;;;;;;;21.20;12.40;;;;;;;10.39;70.68;98647.47;423011;1293;97863;-40
2022/10/21 10:42:32;;;;;;;22.90;13.90;;;;;;;10.54;70.47;98638.61;423062;1291;110408;-40
2022/10/21 10:52:38;;;;;;;20.20;11.30;;;;;;;10.90;69.94;98621.86;422960;1298;107167;-40
2022/10/21 11:02:48;;;;;;;20.60;11.30;;;;;;;11.40;68.87;98618.24;422591;1284;97474;-40
2022/10/21 11:12:56;;;;;;;21.40;12.40;;;;;;;11.68;68.22;98604.23;422963;1292;109855;-40
2022/10/21 11:23:03;;;;;;;20.00;11.70;;;;;;;11.78;67.19;98580.87;422966;1279;109164;-41
2022/10/21 11:43:25;;;;;;;19.00;10.60;;;;;;;12.18;66.93;98559.31;422726;1293;97481;-40
2022/10/21 11:53:39;;;;;;;18.00;9.90;;;;;;;12.92;66.84;98532.54;422819;1295;109625;-40
2022/10/21 12:03:56;;;;;;;17.30;10.60;;;;;;;12.96;66.17;98525.58;422894;1293;109017;-40
2022/10/21 12:14:03;;;;;;;15.10;9.50;;;;;;;12.98;65.79;98515.52;422859;1289;116932;-40
2022/10/21 12:24:11;;;;;;;15.90;9.00;;;;;;;13.24;65.09;98503.21;422315;1296;110318;-40
2022/10/21 12:44:22;;;;;;;15.90;9.20;;;;;;;13.43;64.03;98484.44;422527;1292;97890;-41
2022/10/21 12:54:30;;;;;;;14.30;8.80;;;;;;;13.22;62.69;98484.02;422663;1296;110333;-40
2022/10/21 13:14:50;;;;;;;18.30;11.60;;;;;;;12.63;63.21;98482.41;422925;1285;98934;-40
2022/10/21 13:24:57;;;;;;;24.30;13.70;;;;;;;12.48;63.30;98479.55;422765;1285;110598;-41
2022/10/21 13:46:05;;;;;;;23.90;15.50;;;;;;;12.30;63.89;98497.39;408929;1334;637694;-40
2022/10/21 13:56:18;;;;;;;24.20;14.50;;;;;;;12.19;64.01;98485.52;421052;1305;249790;-40
2022/10/21 14:06:29;;;;;;;28.70;17.20;;;;;;;12.02;64.03;98491.26;421802;1299;106598;-40
2022/10/21 14:16:36;;;;;;;24.20;16.70;;;;;;;11.83;64.68;98498.39;421518;1302;107816;-40
2022/10/21 14:26:44;;;;;;;30.40;16.90;;;;;;;11.71;65.00;98505.27;421523;1300;107787;-40
2022/10/21 14:36:58;;;;;;;27.10;14.90;;;;;;;11.64;65.29;98499.17;420989;1291;95576;-40
2022/10/21 14:47:01;;;;;;;27.40;16.30;;;;;;;11.59;65.64;98491.48;421746;1298;108539;-40
2022/10/21 14:57:05;;;;;;;28.90;18.10;;;;;;;11.47;65.92;98499.29;421038;1296;108719;-40
2022/10/21 15:07:15;;;;;;;33.90;19.80;;;;;;;11.29;66.23;98494.89;420872;1299;96219;-40
2022/10/21 15:17:20;;;;;;;38.50;21.20;;;;;;;11.10;66.53;98480.40;421023;1298;107579;-40
2022/10/21 15:27:24;;;;;;;41.60;22.50;;;;;;;10.91;66.93;98482.95;420912;1295;96519;-40
2022/10/21 15:37:28;;;;;;;47.80;24.60;;;;;;;10.77;67.20;98486.70;421015;1291;95664;-40
2022/10/21 15:47:31;;;;;;;105.00;34.50;;;;;;;10.70;67.59;98490.22;421158;1298;110121;-40
2022/10/21 15:57:37;;;;;;;61.00;30.80;;;;;;;10.62;68.12;98489.63;422295;1295;108545;-40
2022/10/21 16:07:42;;;;;;;62.10;34.00;;;;;;;10.49;68.58;98488.55;422310;1296;96553;-39
2022/10/21 16:17:49;;;;;;;61.50;33.50;;;;;;;10.37;69.04;98486.66;422165;1295;96140;-41
2022/10/21 16:27:53;;;;;;;43.90;26.00;;;;;;;10.36;69.42;98479.50;422344;1295;108281;-41
2022/10/21 16:38:00;;;;;;;45.70;22.40;;;;;;;10.51;69.56;98484.94;422136;1289;96181;-41
2022/10/21 16:48:04;;;;;;;29.30;15.40;;;;;;;10.66;69.72;98488.71;421828;1295;109409;-41
2022/10/21 16:58:08;;;;;;;29.30;15.20;;;;;;;10.78;69.72;98486.14;422243;1295;96169;-41
2022/10/21 17:08:12;;;;;;;24.30;12.30;;;;;;;10.88;69.54;98494.81;422237;1302;96514;-41
2022/10/21 17:18:15;;;;;;;13.50;8.80;;;;;;;10.94;69.25;98491.38;422146;1295;96133;-41
2022/10/21 17:28:19;;;;;;;22.90;12.70;;;;;;;10.96;69.31;98495.11;422314;1294;107300;-41
2022/10/21 17:38:23;;;;;;;22.80;12.30;;;;;;;10.97;69.31;98486.95;422344;1296;96154;-41
2022/10/21 17:48:26;;;;;;;32.60;17.80;;;;;;;10.89;69.28;98486.09;422436;1295;96536;-41
2022/10/21 17:58:31;;;;;;;25.10;13.10;;;;;;;10.73;69.55;98474.58;422173;1296;108353;-41
2022/10/21 18:08:35;;;;;;;14.60;10.30;;;;;;;10.69;69.44;98454.52;422334;1295;96114;-41
2022/10/21 18:18:40;;;;;;;15.80;9.90;;;;;;;10.74;69.43;98438.27;422498;1293;96109;-41
2022/10/21 18:28:43;;;;;;;17.40;11.80;;;;;;;10.74;69.44;98422.85;422358;1296;107608;-41
2022/10/21 18:38:47;;;;;;;19.20;9.70;;;;;;;10.64;69.46;98416.63;422238;1288;96136;-41
2022/10/21 18:48:50;;;;;;;20.20;12.40;;;;;;;10.53;69.30;98401.88;422195;1293;96188;-41
2022/10/21 18:58:55;;;;;;;20.20;11.30;;;;;;;10.47;69.55;98392.62;422038;1294;96127;-42
2022/10/21 19:19:05;;;;;;;29.80;18.00;;;;;;;10.14;70.48;98394.88;422286;1289;95325;-40
2022/10/21 19:29:12;;;;;;;20.00;13.90;;;;;;;9.88;71.33;98384.91;422467;1302;107943;-41
2022/10/21 19:39:17;;;;;;;23.10;16.20;;;;;;;9.68;71.99;98401.41;422025;1296;96875;-40
2022/10/21 19:49:21;;;;;;;27.70;15.00;;;;;;;9.50;72.71;98412.83;422208;1296;95398;-40
2022/10/21 19:59:25;;;;;;;21.10;13.00;;;;;;;9.42;72.98;98418.58;422288;1292;96828;-40
2022/10/21 20:09:28;;;;;;;17.90;12.10;;;;;;;9.45;73.31;98414.85;422173;1297;107088;-40
2022/10/21 20:19:32;;;;;;;16.80;11.50;;;;;;;9.50;73.57;98424.70;422330;1294;95510;-39
2022/10/21 20:29:36;;;;;;;19.30;12.90;;;;;;;9.47;73.86;98437.65;422139;1288;108399;-40
2022/10/21 20:39:40;;;;;;;18.70;12.70;;;;;;;9.42;74.02;98437.38;422470;1295;96178;-40
2022/10/21 20:49:44;;;;;;;18.10;10.70;;;;;;;9.48;73.87;98425.23;422365;1296;96158;-44
2022/10/21 20:59:47;;;;;;;15.00;10.20;;;;;;;9.63;73.95;98412.58;422056;1302;107865;-41
2022/10/21 21:09:50;;;;;;;17.90;10.00;;;;;;;9.72;74.02;98416.34;422045;1297;96143;-40
2022/10/21 21:20:08;;;;;;;19.80;11.60;;;;;;;9.74;73.91;98416.30;422167;1291;96143;-40
2022/10/21 21:30:12;;;;;;;16.50;9.60;;;;;;;9.76;73.66;98413.42;422172;1296;108753;-41
2022/10/21 21:40:15;;;;;;;14.90;10.50;;;;;;;9.76;73.56;98403.49;422040;1296;110328;-40
2022/10/21 21:50:19;;;;;;;20.00;12.90;;;;;;;9.70;73.53;98407.36;422118;1302;96137;-40
2022/10/21 22:00:23;;;;;;;19.40;11.70;;;;;;;9.63;73.45;98399.60;422010;1282;96500;-41
2022/10/21 22:10:28;;;;;;;20.50;10.80;;;;;;;9.66;73.33;98381.85;422308;1302;107223;-40
2022/10/21 22:20:32;;;;;;;16.60;9.90;;;;;;;9.75;73.39;98365.45;422464;1288;95607;-40
2022/10/21 22:30:35;;;;;;;16.10;10.60;;;;;;;9.83;73.38;98364.45;422217;1287;108621;-40
2022/10/21 22:40:39;;;;;;;21.20;10.80;;;;;;;9.81;73.26;98357.25;422272;1296;96271;-41
2022/10/21 22:50:43;;;;;;;18.70;11.20;;;;;;;9.79;73.13;98356.94;422318;1281;95960;-41
2022/10/21 23:00:47;;;;;;;14.80;10.10;;;;;;;9.79;73.06;98356.93;422243;1295;108923;-41
2022/10/21 23:10:51;;;;;;;19.40;11.50;;;;;;;9.78;73.07;98368.33;421854;1296;96115;-41
2022/10/21 23:20:55;;;;;;;15.70;11.50;;;;;;;9.70;73.07;98356.92;422300;1295;96136;-41
2022/10/21 23:30:59;;;;;;;18.00;9.90;;;;;;;9.58;72.93;98359.25;422300;1287;107052;-41
2022/10/21 23:41:03;;;;;;;16.10;9.60;;;;;;;9.56;72.90;98370.58;422238;1289;96261;-39
2022/10/21 23:51:07;;;;;;;13.60;8.70;;;;;;;9.58;72.81;98387.72;422374;1295;108460;-40
